Time;durP1;ratioP1;P1;durP2;ratioP2;P2;SDS_P1;SDS_P2;PMS_P1;PMS_P2;Temp;Humidity;BMP_temperature;BMP_pressure;BME280_temperature;BME280_humidity;BME280_pressure;Samples;Min_cycle;Max_cycle;Signal;HPM_P1;HPM_P2
2022/06/08 00:00:04;;;;;;;;;;;16.30;99.90;;;;;;5087893;28;20087;-81
2022/06/08 00:02:32;;;;;;;7.97;1.45;;;16.30;99.90;;;;;;5091736;28;19920;-78
2022/06/08 00:04:59;;;;;;;5.70;1.02;;;16.30;99.90;;;;;;5097024;28;20048;-78
2022/06/08 00:07:26;;;;;;;7.22;1.58;;;16.20;99.90;;;;;;5090336;28;20082;-79
2022/06/08 00:09:53;;;;;;;6.60;1.20;;;16.20;99.90;;;;;;5083231;28;20080;-80
2022/06/08 00:12:20;;;;;;;6.50;1.30;;;16.10;99.90;;;;;;5092543;28;20051;-79
2022/06/08 00:14:47;;;;;;;4.93;1.40;;;16.10;99.90;;;;;;5083619;28;20559;-80
2022/06/08 00:17:15;;;;;;;4.80;1.40;;;16.10;99.90;;;;;;5082929;28;20048;-79
2022/06/08 00:19:42;;;;;;;8.32;1.30;;;16.10;99.90;;;;;;5085542;28;20049;-78
2022/06/08 00:22:09;;;;;;;5.13;1.27;;;16.00;99.90;;;;;;5086250;28;20048;-80
2022/06/08 00:24:36;;;;;;;6.50;1.45;;;16.00;99.90;;;;;;5103055;22;20045;-86
2022/06/08 00:27:03;;;;;;;4.70;1.40;;;16.00;99.90;;;;;;5067693;28;20103;-86
2022/06/08 00:29:31;;;;;;;5.72;1.40;;;15.90;99.90;;;;;;5055379;28;20044;-85
2022/06/08 00:31:58;;;;;;;5.82;1.55;;;15.90;99.90;;;;;;5046189;28;20425;-85
2022/06/08 00:34:25;;;;;;;4.22;1.00;;;15.80;99.90;;;;;;5067789;28;20045;-86
2022/06/08 00:36:59;;;;;;;5.78;1.20;;;15.80;99.90;;;;;;5045734;28;20049;-86
2022/06/08 00:39:31;;;;;;;5.93;1.17;;;15.80;99.90;;;;;;5064270;28;20060;-86
2022/06/08 00:42:03;;;;;;;8.30;1.45;;;15.80;99.90;;;;;;5055621;28;20494;-85
2022/06/08 00:44:37;;;;;;;7.70;2.05;;;15.80;99.90;;;;;;5043369;28;20049;-86
2022/06/08 00:47:12;;;;;;;6.60;1.30;;;15.80;99.90;;;;;;5042393;28;20072;-87
2022/06/08 00:49:56;;;;;;;3.17;1.10;;;15.70;99.90;;;;;;5045747;28;20084;-86
2022/06/08 00:52:34;;;;;;;5.13;1.50;;;15.70;99.90;;;;;;5062691;28;20041;-86
2022/06/08 00:55:07;;;;;;;5.95;1.10;;;15.70;99.90;;;;;;5049657;28;20444;-86
2022/06/08 00:57:42;;;;;;;3.75;1.40;;;15.70;99.90;;;;;;5047849;28;20499;-85
2022/06/08 01:00:22;;;;;;;3.70;1.42;;;15.60;99.90;;;;;;5046306;28;20045;-86
2022/06/08 01:02:54;;;;;;;4.65;1.23;;;15.60;99.90;;;;;;5061308;28;20072;-85
2022/06/08 01:05:41;;;;;;;4.45;0.88;;;15.60;99.90;;;;;;5050723;28;20163;-85
2022/06/08 01:08:28;;;;;;;8.38;1.13;;;15.40;99.90;;;;;;5064147;28;20135;-86
2022/06/08 01:11:02;;;;;;;4.47;1.20;;;15.50;99.90;;;;;;5052035;28;20395;-85
2022/06/08 01:13:34;;;;;;;6.22;1.40;;;15.50;99.90;;;;;;5070954;28;20063;-86
2022/06/08 01:16:11;;;;;;;9.25;1.50;;;15.60;99.90;;;;;;5067538;28;20561;-85
2022/06/08 01:18:39;;;;;;;4.63;1.20;;;15.60;99.90;;;;;;5051486;28;20060;-85
2022/06/08 01:21:18;;;;;;;5.10;1.25;;;15.60;99.90;;;;;;5051583;28;20093;-85
2022/06/08 01:23:54;;;;;;;15.48;2.13;;;15.60;99.90;;;;;;5053303;28;20131;-86
2022/06/08 01:26:45;;;;;;;7.20;1.40;;;15.60;99.90;;;;;;5047301;28;20044;-85
2022/06/08 01:29:22;;;;;;;3.15;1.33;;;15.60;99.90;;;;;;5044552;28;20088;-86
2022/06/08 01:32:16;;;;;;;5.40;1.10;;;15.60;99.90;;;;;;5056671;28;20094;-85
2022/06/08 01:35:14;;;;;;;5.45;1.50;;;15.70;99.90;;;;;;5049687;28;20538;-85
2022/06/08 01:37:47;;;;;;;3.22;1.38;;;15.70;99.90;;;;;;5044868;28;20049;-85
2022/06/08 01:40:43;;;;;;;6.03;1.65;;;15.70;99.90;;;;;;5065834;28;20081;-84
2022/06/08 01:43:56;;;;;;;2.05;1.00;;;15.70;99.90;;;;;;5062443;28;20131;-86
2022/06/08 01:46:33;;;;;;;3.40;1.40;;;15.80;99.90;;;;;;5030269;28;20443;-87
2022/06/08 01:49:03;;;;;;;1.98;1.10;;;15.80;99.90;;;;;;5048585;28;20064;-87
2022/06/08 01:51:50;;;;;;;;;;;15.80;99.90;;;;;;5054119;28;20131;-87
2022/06/08 01:54:44;;;;;;;5.53;1.20;;;15.80;99.90;;;;;;5049483;28;19960;-85
2022/06/08 01:57:26;;;;;;;2.53;1.35;;;15.80;99.90;;;;;;5046219;28;20056;-85
2022/06/08 02:00:11;;;;;;;6.70;1.90;;;15.70;99.90;;;;;;5058026;28;20057;-86
2022/06/08 02:02:47;;;;;;;4.93;1.00;;;15.70;99.90;;;;;;5048818;28;20643;-86
2022/06/08 02:05:26;;;;;;;5.65;1.30;;;15.70;99.90;;;;;;5042012;28;20076;-87
2022/06/08 02:08:23;;;;;;;6.28;1.17;;;15.70;99.90;;;;;;5049097;28;20049;-86
2022/06/08 02:11:12;;;;;;;4.75;1.20;;;15.70;99.90;;;;;;5052425;28;20045;-86
2022/06/08 02:13:39;;;;;;;4.22;1.25;;;15.70;99.90;;;;;;5047450;28;20559;-86
2022/06/08 02:16:11;;;;;;;3.70;1.70;;;15.60;99.90;;;;;;5055886;28;20048;-87
2022/06/08 02:18:43;;;;;;;5.00;1.23;;;15.60;99.90;;;;;;5069658;28;20052;-86
2022/06/08 02:21:20;;;;;;;4.70;1.23;;;15.60;99.90;;;;;;5065625;28;20079;-87
2022/06/08 02:24:01;;;;;;;4.50;1.10;;;15.60;99.90;;;;;;5047488;28;20083;-87
2022/06/08 02:26:34;;;;;;;4.22;1.00;;;15.50;99.90;;;;;;5038245;28;20502;-86
2022/06/08 02:29:16;;;;;;;6.38;1.45;;;15.50;99.90;;;;;;5068722;28;20044;-86
2022/06/08 02:31:53;;;;;;;3.90;1.38;;;15.50;99.90;;;;;;5045706;28;20075;-89
2022/06/08 02:34:39;;;;;;;5.22;1.20;;;15.50;99.90;;;;;;5044026;28;20049;-86
2022/06/08 02:37:24;;;;;;;7.03;1.25;;;15.40;99.90;;;;;;5054595;28;20514;-86
2022/06/08 02:39:56;;;;;;;5.07;1.10;;;15.40;99.90;;;;;;5065433;28;20417;-87
2022/06/08 02:42:34;;;;;;;3.70;1.08;;;15.40;99.90;;;;;;5062514;28;20117;-87
2022/06/08 02:45:25;;;;;;;5.72;1.40;;;15.40;99.90;;;;;;5045274;28;20060;-86
2022/06/08 02:48:01;;;;;;;4.53;1.20;;;15.30;99.90;;;;;;5040520;28;20051;-87
2022/06/08 02:50:32;;;;;;;4.75;1.38;;;15.30;99.90;;;;;;5045368;28;20079;-87
2022/06/08 02:53:25;;;;;;;7.07;1.67;;;15.30;99.90;;;;;;5042451;28;20053;-87
2022/06/08 02:56:18;;;;;;;7.72;1.98;;;15.30;99.90;;;;;;5061808;28;20079;-86
2022/06/08 02:58:54;;;;;;;6.55;1.45;;;15.30;99.90;;;;;;5057321;28;20072;-86
2022/06/08 03:01:36;;;;;;;5.68;1.55;;;15.20;99.90;;;;;;5057397;28;20095;-86
2022/06/08 03:04:28;;;;;;;6.72;1.33;;;15.20;99.90;;;;;;5043858;28;20095;-87
2022/06/08 03:07:00;;;;;;;2.40;1.10;;;15.20;99.90;;;;;;5052957;28;20101;-87
2022/06/08 03:09:31;;;;;;;6.10;1.52;;;15.20;99.90;;;;;;5052597;28;20060;-87
2022/06/08 03:12:08;;;;;;;3.55;1.52;;;15.10;99.90;;;;;;5039284;28;20081;-87
2022/06/08 03:14:38;;;;;;;3.30;1.20;;;15.10;99.90;;;;;;5052472;28;20045;-87
2022/06/08 03:17:07;;;;;;;8.13;1.42;;;15.10;99.90;;;;;;5035509;28;20136;-86
2022/06/08 03:19:39;;;;;;;4.22;1.25;;;15.10;99.90;;;;;;5039689;28;20076;-87
2022/06/08 03:22:06;;;;;;;6.85;1.42;;;15.10;99.90;;;;;;5047427;28;20053;-87
2022/06/08 03:24:34;;;;;;;6.93;1.63;;;15.10;99.90;;;;;;5041250;28;20076;-87
2022/06/08 03:27:08;;;;;;;6.63;1.38;;;15.10;99.90;;;;;;5055235;28;20052;-87
2022/06/08 03:29:35;;;;;;;5.13;1.40;;;15.00;99.90;;;;;;5047362;28;20041;-87
2022/06/08 03:32:05;;;;;;;5.10;1.38;;;15.00;99.90;;;;;;5043183;28;20145;-87
2022/06/08 03:34:33;;;;;;;5.43;1.83;;;15.00;99.90;;;;;;5046829;28;20540;-87
2022/06/08 03:37:00;;;;;;;6.40;1.73;;;15.00;99.90;;;;;;5042748;28;20128;-87
2022/06/08 03:39:27;;;;;;;5.15;1.45;;;14.90;99.90;;;;;;5062046;28;20076;-87
2022/06/08 03:41:54;;;;;;;5.28;1.58;;;14.90;99.90;;;;;;5052367;28;20049;-87
2022/06/08 03:44:22;;;;;;;5.93;1.38;;;14.90;99.90;;;;;;5084133;28;20052;-88
2022/06/08 03:47:11;;;;;;;6.50;1.33;;;14.90;99.90;;;;;;5049593;28;20072;-87
2022/06/08 03:49:39;;;;;;;2.85;1.20;;;14.90;99.90;;;;;;5044120;28;20052;-86
2022/06/08 03:52:18;;;;;;;5.60;1.52;;;14.90;99.90;;;;;;5046398;28;20045;-86
2022/06/08 03:54:50;;;;;;;3.88;1.98;;;14.90;99.90;;;;;;5061231;28;20133;-86
2022/06/08 03:57:19;;;;;;;8.70;1.30;;;14.90;99.90;;;;;;5046784;28;20403;-86
2022/06/08 03:59:48;;;;;;;8.70;2.25;;;14.80;99.90;;;;;;5050607;28;20064;-87
2022/06/08 04:02:16;;;;;;;11.02;2.03;;;14.90;99.90;;;;;;5043046;28;20505;-87
2022/06/08 04:04:45;;;;;;;4.07;1.20;;;14.90;99.90;;;;;;5066732;28;20049;-86
2022/06/08 04:07:13;;;;;;;6.30;1.30;;;14.90;99.90;;;;;;5062817;28;20485;-87
2022/06/08 04:09:41;;;;;;;5.15;1.25;;;14.90;99.90;;;;;;5047879;28;20114;-87
2022/06/08 04:12:10;;;;;;;4.32;1.20;;;14.90;99.90;;;;;;5051126;28;20510;-86
2022/06/08 04:14:37;;;;;;;6.35;1.60;;;14.90;99.90;;;;;;5046667;28;20049;-87
2022/06/08 04:17:06;;;;;;;3.85;1.40;;;15.00;99.90;;;;;;5077983;28;20093;-88
2022/06/08 04:19:33;;;;;;;4.85;1.85;;;15.00;99.90;;;;;;5071917;28;20041;-91
2022/06/08 04:22:00;;;;;;;6.90;1.30;;;15.00;99.90;;;;;;5076100;28;20067;-90
2022/06/08 04:24:31;;;;;;;3.75;2.03;;;15.00;99.90;;;;;;5075501;28;20058;-88
2022/06/08 04:27:10;;;;;;;8.10;1.58;;;15.00;99.90;;;;;;5074521;28;20132;-89
2022/06/08 04:29:40;;;;;;;11.65;2.53;;;15.10;99.90;;;;;;5072271;28;20060;-87
2022/06/08 04:32:10;;;;;;;6.25;1.45;;;15.10;99.90;;;;;;5089184;28;20037;-89
2022/06/08 04:34:38;;;;;;;5.93;1.10;;;15.20;99.90;;;;;;5075742;28;20043;-91
2022/06/08 04:37:05;;;;;;;4.60;1.55;;;15.20;99.90;;;;;;5075935;28;20036;-88
2022/06/08 04:39:32;;;;;;;5.50;1.10;;;15.30;99.90;;;;;;5073345;28;20028;-89
2022/06/08 04:42:03;;;;;;;5.43;1.40;;;15.30;99.90;;;;;;5073804;28;20041;-89
2022/06/08 04:44:30;;;;;;;5.60;1.23;;;15.40;99.90;;;;;;5070780;28;20053;-90
2022/06/08 04:46:57;;;;;;;5.57;1.73;;;15.50;99.90;;;;;;5085866;28;20077;-87
2022/06/08 04:49:24;;;;;;;5.55;1.27;;;15.50;99.90;;;;;;5065475;28;20057;-87
2022/06/08 04:51:51;;;;;;;7.85;1.63;;;15.70;99.90;;;;;;5049412;28;20049;-86
2022/06/08 04:54:18;;;;;;;7.45;2.72;;;15.90;99.90;;;;;;5050626;28;20084;-87
2022/06/08 04:56:47;;;;;;;4.03;1.40;;;16.10;99.90;;;;;;5048126;28;20052;-87
2022/06/08 04:59:15;;;;;;;4.05;1.35;;;16.40;99.90;;;;;;5051420;28;20048;-89
2022/06/08 05:01:42;;;;;;;4.65;1.42;;;16.60;99.90;;;;;;5069773;28;20045;-86
2022/06/08 05:04:10;;;;;;;3.35;0.95;;;16.90;99.90;;;;;;5089345;28;20032;-90
2022/06/08 05:06:37;;;;;;;4.03;0.85;;;17.10;99.90;;;;;;5074131;28;20039;-89
2022/06/08 05:09:04;;;;;;;2.50;1.00;;;17.30;99.90;;;;;;5090480;28;20051;-89
2022/06/08 05:11:31;;;;;;;3.17;0.80;;;17.50;99.90;;;;;;5070582;28;20069;-89
2022/06/08 05:13:58;;;;;;;4.10;1.02;;;17.60;99.90;;;;;;5072180;28;20045;-91
2022/06/08 05:16:24;;;;;;;3.25;1.10;;;17.80;99.90;;;;;;5069661;28;20052;-87
2022/06/08 05:18:51;;;;;;;1.20;0.55;;;18.00;99.90;;;;;;5051186;28;20136;-87
2022/06/08 05:21:18;;;;;;;3.15;1.15;;;18.10;99.90;;;;;;5050317;28;20072;-86
2022/06/08 05:23:46;;;;;;;4.22;0.80;;;18.20;99.90;;;;;;5062851;28;20055;-87
2022/06/08 05:26:14;;;;;;;3.85;0.80;;;18.30;99.90;;;;;;5044120;28;20048;-87
2022/06/08 05:28:41;;;;;;;4.90;1.20;;;18.50;99.90;;;;;;5045676;28;20147;-87
2022/06/08 05:31:09;;;;;;;3.63;1.35;;;18.50;99.90;;;;;;5045477;28;20402;-87
2022/06/08 05:33:37;;;;;;;5.45;1.00;;;18.60;99.90;;;;;;5048187;28;20053;-87
2022/06/08 05:36:05;;;;;;;5.68;1.13;;;18.70;99.90;;;;;;5067756;28;20057;-86
2022/06/08 05:38:32;;;;;;;3.92;1.20;;;18.70;99.90;;;;;;5048159;28;20058;-86
2022/06/08 05:40:59;;;;;;;3.58;1.52;;;18.80;99.90;;;;;;5046571;28;20048;-87
2022/06/08 05:43:26;;;;;;;3.95;1.55;;;18.80;99.90;;;;;;5050484;28;20062;-87
2022/06/08 05:45:53;;;;;;;6.47;1.35;;;18.80;99.90;;;;;;5046328;28;20143;-87
2022/06/08 05:48:20;;;;;;;7.57;1.50;;;18.80;99.90;;;;;;5049007;28;20102;-87
2022/06/08 05:50:48;;;;;;;3.95;1.50;;;18.70;99.90;;;;;;5047625;28;20045;-87
2022/06/08 05:53:15;;;;;;;3.75;0.82;;;18.60;99.90;;;;;;5054802;28;20048;-87
2022/06/08 05:55:43;;;;;;;3.75;1.38;;;18.60;99.90;;;;;;5052754;28;20072;-89
2022/06/08 05:58:11;;;;;;;4.28;0.85;;;18.60;99.90;;;;;;5049741;28;20391;-87
2022/06/08 06:00:40;;;;;;;4.78;0.77;;;18.60;99.90;;;;;;5055373;28;20566;-86
2022/06/08 06:03:08;;;;;;;3.92;0.80;;;18.60;99.90;;;;;;5061180;28;20072;-87
2022/06/08 06:05:38;;;;;;;4.50;0.95;;;18.70;99.90;;;;;;5061428;28;20098;-88
2022/06/08 06:08:05;;;;;;;4.05;1.00;;;18.70;99.90;;;;;;5058660;28;20052;-88
2022/06/08 06:10:34;;;;;;;4.60;0.93;;;18.90;99.90;;;;;;5051137;28;20052;-87
2022/06/08 06:13:01;;;;;;;3.85;1.02;;;18.90;99.90;;;;;;5046854;28;20052;-87
2022/06/08 06:15:28;;;;;;;6.28;1.08;;;19.00;99.90;;;;;;5056880;28;20130;-87
2022/06/08 06:17:55;;;;;;;5.22;1.83;;;19.10;99.90;;;;;;5057222;28;20098;-87
2022/06/08 06:20:22;;;;;;;1.92;0.90;;;19.20;99.90;;;;;;5073048;28;20519;-88
2022/06/08 06:22:50;;;;;;;8.52;1.65;;;19.30;99.90;;;;;;5055334;28;20048;-88
2022/06/08 06:25:17;;;;;;;3.72;1.00;;;19.40;99.90;;;;;;5052204;28;20489;-88
2022/06/08 06:27:44;;;;;;;3.92;0.90;;;19.50;99.90;;;;;;5070934;28;20448;-87
2022/06/08 06:30:13;;;;;;;1.38;0.82;;;19.60;99.90;;;;;;5050973;28;20140;-87
2022/06/08 06:32:42;;;;;;;5.30;0.90;;;19.60;99.90;;;;;;5051835;28;20044;-87
2022/06/08 06:35:23;;;;;;;2.90;0.90;;;19.70;99.90;;;;;;5060435;28;20136;-87
2022/06/08 06:37:51;;;;;;;3.25;0.93;;;19.80;99.90;;;;;;5056142;28;20056;-87
2022/06/08 06:40:19;;;;;;;4.60;0.93;;;19.80;99.90;;;;;;5056452;28;20056;-88
2022/06/08 06:42:47;;;;;;;5.35;1.10;;;19.80;99.90;;;;;;5041681;28;20067;-88
2022/06/08 06:45:14;;;;;;;2.38;0.93;;;19.90;99.90;;;;;;5053279;28;20048;-88
2022/06/08 06:47:41;;;;;;;7.15;1.10;;;19.90;99.90;;;;;;5054307;28;20040;-87
2022/06/08 06:50:14;;;;;;;4.88;0.85;;;20.00;99.90;;;;;;5052156;28;20079;-88
2022/06/08 06:52:42;;;;;;;3.67;0.77;;;20.10;99.90;;;;;;5055247;28;20422;-88
2022/06/08 06:55:22;;;;;;;4.40;1.30;;;20.20;99.90;;;;;;5050497;28;20045;-88
2022/06/08 06:57:49;;;;;;;2.78;0.80;;;20.20;99.90;;;;;;5047299;28;20114;-88
2022/06/08 07:00:17;;;;;;;4.05;1.27;;;20.30;99.90;;;;;;5054552;28;20052;-87
2022/06/08 07:02:45;;;;;;;5.28;1.20;;;20.30;99.90;;;;;;5049856;28;20052;-86
2022/06/08 07:05:21;;;;;;;4.68;1.00;;;20.40;99.90;;;;;;5052928;28;20056;-86
2022/06/08 07:07:48;;;;;;;2.40;0.77;;;20.40;99.90;;;;;;5065454;28;20099;-86
2022/06/08 07:10:15;;;;;;;6.80;0.93;;;20.40;99.90;;;;;;5047862;28;20052;-86
2022/06/08 07:12:45;;;;;;;5.57;1.70;;;20.50;99.90;;;;;;5064624;28;20048;-87
2022/06/08 07:15:14;;;;;;;3.97;1.03;;;20.50;99.90;;;;;;5053711;28;20057;-85
2022/06/08 07:17:42;;;;;;;6.07;1.00;;;20.50;99.90;;;;;;5054234;28;20308;-87
2022/06/08 07:20:10;;;;;;;3.13;1.02;;;20.50;99.90;;;;;;5055762;28;20075;-86
2022/06/08 07:22:38;;;;;;;4.35;1.20;;;20.50;99.90;;;;;;5071601;28;20470;-88
2022/06/08 07:25:07;;;;;;;4.65;1.10;;;20.60;99.90;;;;;;5055094;28;20576;-87
2022/06/08 07:27:36;;;;;;;1.63;0.70;;;20.60;99.90;;;;;;5056588;28;20127;-88
2022/06/08 07:30:10;;;;;;;2.97;0.73;;;20.70;99.90;;;;;;5053833;28;20051;-86
2022/06/08 07:32:38;;;;;;;6.20;0.90;;;20.70;99.90;;;;;;5064603;28;20044;-87
2022/06/08 07:35:07;;;;;;;3.45;1.17;;;20.80;99.90;;;;;;5067907;28;20048;-88
2022/06/08 07:37:34;;;;;;;4.32;1.05;;;20.80;99.90;;;;;;5065245;28;20082;-84
2022/06/08 07:40:04;;;;;;;8.15;0.95;;;20.80;99.90;;;;;;5045895;28;20055;-85
2022/06/08 07:42:31;;;;;;;5.80;0.90;;;20.80;99.90;;;;;;5047376;28;20128;-86
2022/06/08 07:45:01;;;;;;;3.50;0.80;;;20.70;99.90;;;;;;5059975;28;20452;-86
2022/06/08 07:47:28;;;;;;;3.40;0.93;;;20.70;99.90;;;;;;5049852;28;20683;-85
2022/06/08 07:49:55;;;;;;;5.45;0.80;;;20.60;99.90;;;;;;5041636;28;20457;-86
2022/06/08 07:52:22;;;;;;;2.53;0.90;;;20.40;99.90;;;;;;5066629;28;20079;-85
2022/06/08 07:54:50;;;;;;;3.88;0.70;;;20.40;99.90;;;;;;5066714;28;20041;-86
2022/06/08 07:57:22;;;;;;;2.50;0.90;;;20.20;99.90;;;;;;5065976;28;20060;-87
2022/06/08 07:59:52;;;;;;;2.45;0.90;;;20.10;99.90;;;;;;5068439;28;20055;-86
2022/06/08 08:02:22;;;;;;;2.85;0.73;;;20.00;99.90;;;;;;5068336;28;20156;-87
2022/06/08 08:04:53;;;;;;;;;;;20.00;99.90;;;;;;5072733;28;20055;-86
2022/06/08 08:07:24;;;;;;;4.00;0.93;;;20.00;99.90;;;;;;5076041;28;19947;-87
2022/06/08 08:09:54;;;;;;;2.50;0.75;;;20.10;99.90;;;;;;5070037;28;20064;-87
2022/06/08 08:12:24;;;;;;;5.07;1.30;;;20.10;99.90;;;;;;5063253;28;20075;-85
2022/06/08 08:14:55;;;;;;;1.52;0.50;;;20.10;99.90;;;;;;5046874;28;20418;-86
2022/06/08 08:17:29;;;;;;;5.15;0.82;;;20.20;99.90;;;;;;5043137;28;20049;-86
2022/06/08 08:20:01;;;;;;;3.63;0.70;;;20.20;99.90;;;;;;5046577;28;20052;-86
2022/06/08 08:22:28;;;;;;;4.40;1.13;;;20.30;99.90;;;;;;5043745;28;20052;-86
2022/06/08 08:24:57;;;;;;;3.60;0.70;;;20.40;99.90;;;;;;5045731;28;20112;-85
2022/06/08 08:27:27;;;;;;;2.60;0.73;;;20.50;99.90;;;;;;5042533;28;20064;-86
2022/06/08 08:29:57;;;;;;;2.40;0.80;;;20.60;99.90;;;;;;5043364;28;20055;-86
2022/06/08 08:32:24;;;;;;;3.80;0.80;;;20.60;99.90;;;;;;5052226;28;20478;-86
2022/06/08 08:34:54;;;;;;;4.43;0.73;;;20.70;99.90;;;;;;5046480;28;20048;-86
2022/06/08 08:37:24;;;;;;;4.18;0.93;;;20.80;99.90;;;;;;5046842;28;20566;-86
2022/06/08 08:39:57;;;;;;;3.03;1.08;;;20.80;99.90;;;;;;5042613;28;20049;-86
2022/06/08 08:42:30;;;;;;;3.05;0.60;;;20.90;99.90;;;;;;5050243;28;20058;-86
2022/06/08 08:45:08;;;;;;;4.40;0.93;;;20.90;99.90;;;;;;5062168;28;20544;-86
2022/06/08 08:47:35;;;;;;;4.40;0.90;;;20.80;99.90;;;;;;5045428;28;20098;-86
2022/06/08 08:50:39;;;;;;;2.40;0.60;;;20.70;99.90;;;;;;5051025;28;20051;-85
2022/06/08 08:53:20;;;;;;;9.65;1.08;;;20.60;99.90;;;;;;5040212;28;20048;-86
2022/06/08 08:55:58;;;;;;;3.47;0.70;;;20.50;99.90;;;;;;5045115;28;20048;-85
2022/06/08 08:58:29;;;;;;;3.65;0.70;;;20.50;99.90;;;;;;5047749;28;20399;-86
2022/06/08 09:01:02;;;;;;;4.38;0.73;;;20.40;99.90;;;;;;5046900;28;20056;-86
2022/06/08 09:03:34;;;;;;;2.85;0.55;;;20.50;99.90;;;;;;5049555;28;20055;-87
2022/06/08 09:06:16;;;;;;;2.25;0.70;;;20.50;99.90;;;;;;5064223;28;20407;-86
2022/06/08 09:08:50;;;;;;;5.18;1.10;;;20.60;99.90;;;;;;5045296;28;20144;-86
2022/06/08 09:11:22;;;;;;;4.03;0.50;;;20.60;99.90;;;;;;5059531;28;20049;-85
2022/06/08 09:14:00;;;;;;;1.92;0.60;;;20.70;99.90;;;;;;5065459;28;20048;-86
2022/06/08 09:16:37;;;;;;;4.18;0.70;;;20.80;99.90;;;;;;5052017;28;20040;-87
2022/06/08 09:19:31;;;;;;;2.83;0.65;;;20.90;99.90;;;;;;5052433;28;20128;-86
2022/06/08 09:22:23;;;;;;;3.28;0.85;;;21.00;99.90;;;;;;5052785;28;20055;-85
2022/06/08 09:24:56;;;;;;;3.42;0.70;;;21.10;99.90;;;;;;5042826;28;20051;-86
2022/06/08 09:27:30;;;;;;;3.50;0.80;;;21.20;99.90;;;;;;5071568;28;20040;-86
2022/06/08 09:30:18;;;;;;;3.80;0.65;;;21.40;99.90;;;;;;5069875;28;20049;-85
2022/06/08 09:32:57;;;;;;;2.92;0.90;;;21.40;99.90;;;;;;5066153;28;20127;-86
2022/06/08 09:35:37;;;;;;;1.42;0.60;;;21.60;99.90;;;;;;5053080;28;20394;-85
2022/06/08 09:38:14;;;;;;;2.33;0.70;;;21.70;99.90;;;;;;5052043;28;20049;-86
2022/06/08 09:41:05;;;;;;;2.67;0.80;;;21.80;99.90;;;;;;5047417;28;20126;-86
2022/06/08 09:43:50;;;;;;;4.57;0.82;;;22.00;99.90;;;;;;5066647;28;20052;-85
2022/06/08 09:53:26;;;;;;;2.17;0.75;;;22.50;99.90;;;;;;5066692;28;20053;-86
2022/06/08 09:56:11;;;;;;;2.15;0.60;;;22.70;99.90;;;;;;4995827;28;20133;-86
2022/06/08 09:58:54;;;;;;;4.05;0.88;;;22.90;99.90;;;;;;5005726;28;20042;-86
2022/06/08 10:01:26;;;;;;;3.13;0.93;;;23.10;99.90;;;;;;5035160;28;20044;-86
2022/06/08 10:04:02;;;;;;;4.40;0.73;;;23.20;99.90;;;;;;5052219;28;20057;-86
2022/06/08 10:06:47;;;;;;;3.58;0.88;;;23.30;99.90;;;;;;5051666;28;20044;-86
2022/06/08 10:09:19;;;;;;;3.65;0.80;;;23.40;99.90;;;;;;5052171;28;20048;-87
2022/06/08 10:11:57;;;;;;;2.92;0.60;;;23.50;99.90;;;;;;5048581;28;20564;-85
2022/06/08 10:14:42;;;;;;;4.63;1.35;;;23.60;99.90;;;;;;5052655;28;20041;-85
2022/06/08 10:17:17;;;;;;;7.05;1.00;;;23.70;99.90;;;;;;5058482;28;20067;-86
2022/06/08 10:19:58;;;;;;;3.45;0.75;;;23.80;99.90;;;;;;5065882;28;20497;-86
2022/06/08 10:22:31;;;;;;;1.55;0.43;;;23.80;99.90;;;;;;5050527;28;20050;-86
2022/06/08 10:25:07;;;;;;;4.10;0.80;;;23.90;99.90;;;;;;5055809;28;20131;-86
2022/06/08 10:27:44;;;;;;;0.88;0.50;;;23.90;99.90;;;;;;5051053;28;20045;-85
2022/06/08 10:30:41;;;;;;;1.48;0.65;;;23.90;99.90;;;;;;5056648;28;20045;-86
2022/06/08 10:33:29;;;;;;;1.55;0.70;;;24.00;99.90;;;;;;5070332;28;20049;-86
2022/06/08 10:35:58;;;;;;;2.70;0.60;;;24.00;99.90;;;;;;5053165;28;20109;-85
2022/06/08 10:38:34;;;;;;;5.47;0.80;;;23.90;99.90;;;;;;5055220;28;20052;-85
2022/06/08 10:41:04;;;;;;;2.55;0.93;;;24.00;99.90;;;;;;5069881;28;20048;-86
2022/06/08 10:43:34;;;;;;;4.25;0.98;;;23.90;99.90;;;;;;5054209;28;20049;-86
2022/06/08 10:46:05;;;;;;;4.18;0.82;;;24.00;99.90;;;;;;5063677;28;20044;-86
2022/06/08 10:48:44;;;;;;;4.13;0.75;;;24.00;99.90;;;;;;5070759;28;20528;-86
2022/06/08 10:51:11;;;;;;;1.70;0.60;;;24.10;99.90;;;;;;5045227;28;20521;-85
2022/06/08 10:56:53;;;;;;;3.35;1.02;;;24.20;99.90;;;;;;5080441;28;20108;-85
2022/06/08 10:59:27;;;;;;;3.42;1.00;;;24.20;99.90;;;;;;5058603;28;20053;-86
2022/06/08 11:01:59;;;;;;;2.83;0.88;;;24.20;99.90;;;;;;5046414;28;20581;-85
2022/06/08 11:04:32;;;;;;;3.22;1.00;;;24.30;99.90;;;;;;5047740;28;20471;-86
2022/06/08 11:07:10;;;;;;;3.60;1.00;;;24.40;99.90;;;;;;5062508;28;20056;-85
2022/06/08 11:09:39;;;;;;;3.80;1.10;;;24.50;99.90;;;;;;5047647;28;20086;-86
2022/06/08 11:12:12;;;;;;;7.13;1.30;;;24.60;99.90;;;;;;5056233;28;20048;-85
2022/06/08 11:14:48;;;;;;;5.10;1.10;;;24.70;99.90;;;;;;5049716;28;20059;-85
2022/06/08 11:17:45;;;;;;;5.65;0.95;;;24.70;99.90;;;;;;5068343;28;20058;-84
2022/06/08 11:20:15;;;;;;;4.68;0.90;;;24.70;99.90;;;;;;5052315;28;20078;-83
2022/06/08 11:23:12;;;;;;;2.63;0.70;;;24.60;99.90;;;;;;5054200;28;20049;-87
2022/06/08 11:26:12;;;;;;;5.40;0.90;;;24.70;99.90;;;;;;5059034;28;20132;-87
2022/06/08 11:28:44;;;;;;;2.85;0.80;;;24.70;99.90;;;;;;5041616;28;20049;-86
2022/06/08 11:31:33;;;;;;;2.53;1.05;;;24.80;99.90;;;;;;5049414;28;20075;-86
2022/06/08 11:34:18;;;;;;;3.55;1.35;;;24.70;99.90;;;;;;5047638;28;20044;-86
2022/06/08 11:37:06;;;;;;;2.97;1.00;;;24.70;99.90;;;;;;5048749;28;20070;-86
2022/06/08 11:39:51;;;;;;;5.13;1.13;;;24.70;99.90;;;;;;5069487;28;20053;-85
2022/06/08 11:42:44;;;;;;;2.55;0.70;;;24.60;99.90;;;;;;5063079;28;20041;-86
2022/06/08 11:45:22;;;;;;;3.75;0.80;;;24.70;99.90;;;;;;5068189;28;20095;-88
2022/06/08 11:47:50;;;;;;;4.53;0.90;;;24.80;99.90;;;;;;5062256;28;20522;-86
2022/06/08 11:50:22;;;;;;;3.83;0.85;;;24.70;99.90;;;;;;5068916;28;20123;-87
2022/06/08 11:53:02;;;;;;;3.83;0.80;;;24.80;99.90;;;;;;5068235;28;20452;-87
2022/06/08 11:55:48;;;;;;;3.42;0.90;;;24.80;99.90;;;;;;5049401;28;20428;-87
2022/06/08 11:58:28;;;;;;;4.97;0.60;;;25.00;99.90;;;;;;5049938;28;20080;-86
2022/06/08 12:01:01;;;;;;;2.95;0.90;;;25.00;99.90;;;;;;5048890;28;20118;-85
2022/06/08 12:03:42;;;;;;;2.53;0.93;;;25.00;99.90;;;;;;5053159;28;20048;-86
2022/06/08 12:06:27;;;;;;;3.00;0.90;;;24.90;99.90;;;;;;5046162;28;20049;-86
2022/06/08 12:08:57;;;;;;;4.18;0.90;;;24.90;99.90;;;;;;5064918;28;20045;-87
2022/06/08 12:11:28;;;;;;;3.40;1.00;;;24.90;99.90;;;;;;5069213;28;20131;-87
2022/06/08 12:14:13;;;;;;;7.63;1.00;;;24.80;99.90;;;;;;5049860;28;20097;-87
2022/06/08 12:17:01;;;;;;;4.85;1.00;;;24.70;99.90;;;;;;5065877;28;20139;-88
2022/06/08 12:19:43;;;;;;;3.63;0.75;;;24.50;99.90;;;;;;5050711;28;20405;-87
2022/06/08 12:22:20;;;;;;;3.05;1.10;;;24.30;99.90;;;;;;5067464;28;20539;-85
2022/06/08 12:25:08;;;;;;;2.85;0.80;;;24.20;99.90;;;;;;5064452;28;20137;-86
2022/06/08 12:27:46;;;;;;;1.38;0.80;;;23.90;99.90;;;;;;5053659;28;20124;-86
2022/06/08 12:30:26;;;;;;;4.55;1.00;;;23.90;99.90;;;;;;5058771;28;20045;-85
2022/06/08 12:33:21;;;;;;;3.33;0.95;;;23.80;99.90;;;;;;5068309;28;20037;-84
2022/06/08 12:36:11;;;;;;;6.38;0.95;;;23.70;99.90;;;;;;5059978;28;20045;-86
2022/06/08 12:38:57;;;;;;;5.37;1.33;;;23.60;99.90;;;;;;5053918;28;20059;-87
2022/06/08 12:41:48;;;;;;;5.03;0.85;;;23.50;99.90;;;;;;5055472;28;20045;-85
2022/06/08 12:44:21;;;;;;;3.50;0.98;;;23.50;99.90;;;;;;5056993;28;20052;-85
2022/06/08 12:47:11;;;;;;;3.53;1.00;;;23.40;99.90;;;;;;5065176;28;20058;-86
2022/06/08 12:49:59;;;;;;;3.33;1.13;;;23.10;99.90;;;;;;5060439;28;20045;-84
2022/06/08 12:52:32;;;;;;;4.85;1.35;;;23.00;99.90;;;;;;5070382;22;20135;-81
2022/06/08 12:55:00;;;;;;;8.45;1.08;;;22.60;99.90;;;;;;5064041;28;20051;-79
2022/06/08 12:57:31;;;;;;;6.80;1.50;;;22.10;99.90;;;;;;5055809;28;20040;-80
2022/06/08 13:00:01;;;;;;;5.15;1.48;;;21.40;99.90;;;;;;5061856;28;20053;-79
2022/06/08 13:02:31;;;;;;;5.33;1.40;;;20.90;99.90;;;;;;5061801;28;20041;-80
2022/06/08 13:04:59;;;;;;;;;;;20.50;99.90;;;;;;5070077;28;20308;-80
2022/06/08 13:07:34;;;;;;;3.58;1.35;;;20.30;99.90;;;;;;5071428;28;19921;-82
2022/06/08 13:10:01;;;;;;;7.20;1.70;;;20.20;99.90;;;;;;5067322;28;20136;-81
2022/06/08 13:12:32;;;;;;;6.00;1.60;;;20.20;99.90;;;;;;5069955;28;20040;-79
2022/06/08 13:14:59;;;;;;;4.38;1.42;;;20.00;99.90;;;;;;5068054;28;20568;-79
2022/06/08 13:17:28;;;;;;;8.50;2.08;;;20.00;99.90;;;;;;5070650;28;20045;-79
2022/06/08 13:19:59;;;;;;;7.13;1.67;;;20.10;99.90;;;;;;5066216;28;20077;-78
2022/06/08 13:22:26;;;;;;;5.20;1.80;;;20.10;99.90;;;;;;5069566;28;20072;-79
2022/06/08 13:24:53;;;;;;;4.75;1.75;;;20.00;99.90;;;;;;5045871;28;20076;-79
2022/06/08 13:27:20;;;;;;;8.00;2.10;;;19.90;99.90;;;;;;5063230;28;20057;-79
2022/06/08 13:29:47;;;;;;;9.07;1.88;;;20.00;99.90;;;;;;5061715;28;20044;-79
2022/06/08 13:32:18;;;;;;;7.13;1.95;;;20.10;99.90;;;;;;5065518;28;20054;-78